createdAt,value
2017-10-03T00:00:34.946Z,0
2017-10-03T00:01:35.049Z,0
2017-10-03T00:02:35.359Z,0
2017-10-03T00:03:35.363Z,0
2017-10-03T00:04:35.042Z,0
2017-10-03T00:05:35.737Z,0
2017-10-03T00:06:35.043Z,0
2017-10-03T00:07:34.746Z,0
2017-10-03T00:08:35.049Z,0
2017-10-03T00:09:35.061Z,0
2017-10-03T00:10:35.060Z,0
2017-10-03T00:11:35.355Z,0
2017-10-03T00:12:35.358Z,0
2017-10-03T00:13:35.049Z,0
2017-10-03T00:14:34.746Z,0
2017-10-03T00:15:35.916Z,0
2017-10-03T00:16:35.049Z,0
2017-10-03T00:17:35.046Z,0
2017-10-03T00:18:35.678Z,0
2017-10-03T00:19:35.063Z,0
2017-10-03T00:20:35.411Z,0
2017-10-03T00:21:35.372Z,0
2017-10-03T00:22:35.063Z,0
2017-10-03T00:23:35.051Z,0
2017-10-03T00:24:35.363Z,0
2017-10-03T00:25:35.395Z,0
2017-10-03T00:26:35.052Z,0
2017-10-03T00:27:35.359Z,0
2017-10-03T00:28:35.050Z,0
2017-10-03T00:29:35.361Z,0
2017-10-03T00:30:36.066Z,0
2017-10-03T00:31:35.051Z,0
2017-10-03T00:32:35.364Z,0
2017-10-03T00:33:35.365Z,0
2017-10-03T00:34:35.366Z,0
2017-10-03T00:35:35.442Z,0
2017-10-03T00:36:35.377Z,0
2017-10-03T00:37:35.366Z,0
2017-10-03T00:38:35.076Z,0
2017-10-03T00:39:35.686Z,0
2017-10-03T00:40:35.157Z,0
2017-10-03T00:41:35.377Z,0
2017-10-03T00:42:35.672Z,0
2017-10-03T00:43:35.677Z,0
2017-10-03T00:44:34.752Z,0
2017-10-03T00:45:35.168Z,0
2017-10-03T00:46:34.757Z,0
2017-10-03T00:47:34.759Z,0
2017-10-03T00:48:35.376Z,0
2017-10-03T00:49:34.755Z,0
2017-10-03T00:50:35.069Z,0
2017-10-03T00:51:35.081Z,0
2017-10-03T00:52:35.410Z,0
2017-10-03T00:53:35.088Z,0
2017-10-03T00:54:34.760Z,0
2017-10-03T00:55:35.122Z,0
2017-10-03T00:56:35.075Z,0
2017-10-03T00:57:35.079Z,0
2017-10-03T00:58:35.072Z,0
2017-10-03T00:59:35.083Z,0
2017-10-03T01:00:39.463Z,0
2017-10-03T01:01:35.389Z,0
2017-10-03T01:02:34.777Z,0
2017-10-03T01:03:35.087Z,0
2017-10-03T01:04:35.087Z,0
2017-10-03T01:05:34.766Z,0
2017-10-03T01:06:34.769Z,0
2017-10-03T01:07:35.693Z,0
2017-10-03T01:08:35.106Z,0
2017-10-03T01:09:35.076Z,0
2017-10-03T01:10:35.272Z,0
2017-10-03T01:11:34.457Z,0
2017-10-03T01:12:35.769Z,0
2017-10-03T01:13:35.387Z,0
2017-10-03T01:14:34.773Z,0
2017-10-03T01:15:35.152Z,0
2017-10-03T01:16:35.418Z,0
2017-10-03T01:17:35.439Z,0
2017-10-03T01:18:34.794Z,0
2017-10-03T01:19:35.097Z,0
2017-10-03T01:20:35.445Z,0
2017-10-03T01:21:34.778Z,0
2017-10-03T01:22:35.396Z,0
2017-10-03T01:23:34.776Z,0
2017-10-03T01:24:34.791Z,0
2017-10-03T01:25:35.426Z,0
2017-10-03T01:26:35.390Z,0
2017-10-03T01:27:34.778Z,0
2017-10-03T01:28:35.394Z,0
2017-10-03T01:29:35.418Z,0
2017-10-03T01:30:35.242Z,0
2017-10-03T01:31:35.413Z,0
2017-10-03T01:32:35.504Z,0
2017-10-03T01:33:35.443Z,0
2017-10-03T01:34:35.445Z,0
2017-10-03T01:35:35.731Z,0
2017-10-03T01:36:35.100Z,0
2017-10-03T01:37:35.101Z,0
2017-10-03T01:38:35.427Z,0
2017-10-03T01:39:34.789Z,0
2017-10-03T01:40:35.112Z,0
2017-10-03T01:41:34.784Z,0
2017-10-03T01:42:34.800Z,0
2017-10-03T01:43:35.452Z,0
2017-10-03T01:44:35.092Z,0
2017-10-03T01:45:35.124Z,0
2017-10-03T01:46:35.169Z,0
2017-10-03T01:47:35.412Z,0
2017-10-03T01:48:35.114Z,0
2017-10-03T01:49:34.787Z,0
2017-10-03T01:50:35.144Z,0
2017-10-03T01:51:35.130Z,0
2017-10-03T01:52:35.092Z,0
2017-10-03T01:53:34.795Z,0
2017-10-03T01:54:34.797Z,0
2017-10-03T01:55:35.161Z,0
2017-10-03T01:56:35.283Z,0
2017-10-03T01:57:35.130Z,0
2017-10-03T01:58:35.405Z,0
2017-10-03T01:59:35.421Z,0
2017-10-03T02:00:35.461Z,0
2017-10-03T02:01:39.099Z,0
2017-10-03T02:02:35.101Z,0
2017-10-03T02:03:35.423Z,0
2017-10-03T02:04:35.412Z,0
2017-10-03T02:05:35.168Z,0
2017-10-03T02:06:35.167Z,0
2017-10-03T02:07:34.803Z,0
2017-10-03T02:08:34.494Z,0
2017-10-03T02:09:34.806Z,0
2017-10-03T02:10:34.819Z,0
2017-10-03T02:11:35.111Z,0
2017-10-03T02:12:35.113Z,0
2017-10-03T02:13:35.435Z,0
2017-10-03T02:14:35.443Z,0
2017-10-03T02:15:35.313Z,0
2017-10-03T02:16:35.123Z,0
2017-10-03T02:17:35.492Z,0
2017-10-03T02:18:35.419Z,0
2017-10-03T02:19:35.130Z,0
2017-10-03T02:20:35.183Z,0
2017-10-03T02:21:35.452Z,0
2017-10-03T02:22:35.725Z,0
2017-10-03T02:23:35.105Z,0
2017-10-03T02:24:35.111Z,0
2017-10-03T02:25:35.417Z,0
2017-10-03T02:26:35.421Z,0
2017-10-03T02:27:35.108Z,0
2017-10-03T02:28:35.109Z,0
2017-10-03T02:29:35.755Z,0
2017-10-03T02:30:35.451Z,0
2017-10-03T02:31:36.514Z,0
2017-10-03T02:32:35.434Z,0
2017-10-03T02:33:35.427Z,0
2017-10-03T02:34:35.424Z,0
2017-10-03T02:35:35.444Z,0
2017-10-03T02:36:35.113Z,0
2017-10-03T02:37:35.732Z,0
2017-10-03T02:38:35.737Z,0
2017-10-03T02:39:35.743Z,0
2017-10-03T02:40:35.442Z,0
2017-10-03T02:41:34.814Z,0
2017-10-03T02:42:35.763Z,0
2017-10-03T02:43:35.124Z,0
2017-10-03T02:44:35.437Z,0
2017-10-03T02:45:34.860Z,0
2017-10-03T02:46:35.436Z,0
2017-10-03T02:47:35.430Z,0
2017-10-03T02:48:35.127Z,0
2017-10-03T02:49:35.468Z,0
2017-10-03T02:50:35.769Z,0
2017-10-03T02:51:35.745Z,0
2017-10-03T02:52:35.156Z,0
2017-10-03T02:53:35.440Z,0
2017-10-03T02:54:35.130Z,0
2017-10-03T02:55:35.199Z,0
2017-10-03T02:56:35.741Z,0
2017-10-03T02:57:35.435Z,0
2017-10-03T02:58:35.745Z,0
2017-10-03T02:59:35.467Z,0
2017-10-03T03:00:35.439Z,0
2017-10-03T03:01:38.452Z,0
2017-10-03T03:02:35.446Z,0
2017-10-03T03:03:35.140Z,0
2017-10-03T03:04:35.136Z,0
2017-10-03T03:05:35.448Z,0
2017-10-03T03:06:35.758Z,0
2017-10-03T03:07:35.762Z,0
2017-10-03T03:08:35.750Z,0
2017-10-03T03:09:35.696Z,0
2017-10-03T03:10:35.754Z,0
2017-10-03T03:11:35.453Z,0
2017-10-03T03:12:34.833Z,0
2017-10-03T03:13:35.449Z,0
2017-10-03T03:14:35.767Z,0
2017-10-03T03:15:35.426Z,0
2017-10-03T03:16:35.759Z,0
2017-10-03T03:17:35.759Z,0
2017-10-03T03:18:35.772Z,0
2017-10-03T03:19:35.460Z,0
2017-10-03T03:20:35.148Z,0
2017-10-03T03:21:35.155Z,0
2017-10-03T03:22:35.455Z,0
2017-10-03T03:23:35.455Z,0
2017-10-03T03:24:35.460Z,0
2017-10-03T03:25:35.155Z,0
2017-10-03T03:26:36.998Z,0
2017-10-03T03:27:35.775Z,0
2017-10-03T03:28:35.464Z,0
2017-10-03T03:29:35.465Z,0
2017-10-03T03:30:35.475Z,0
2017-10-03T03:31:35.156Z,0
2017-10-03T03:32:35.479Z,0
2017-10-03T03:33:35.462Z,0
2017-10-03T03:34:35.466Z,0
2017-10-03T03:35:35.514Z,0
2017-10-03T03:36:35.513Z,0
2017-10-03T03:37:35.799Z,0
2017-10-03T03:38:35.469Z,0
2017-10-03T03:39:35.469Z,0
2017-10-03T03:40:35.165Z,0
2017-10-03T03:41:35.167Z,0
2017-10-03T03:42:35.789Z,0
2017-10-03T03:43:35.168Z,0
2017-10-03T03:44:35.471Z,0
2017-10-03T03:45:35.824Z,0
2017-10-03T03:46:35.484Z,0
2017-10-03T03:47:35.506Z,0
2017-10-03T03:48:35.475Z,0
2017-10-03T03:49:35.780Z,0
2017-10-03T03:50:35.808Z,0
2017-10-03T03:51:35.166Z,0
2017-10-03T03:52:35.469Z,0
2017-10-03T03:53:35.470Z,0
2017-10-03T03:54:35.159Z,0
2017-10-03T03:55:35.472Z,0
2017-10-03T03:56:35.782Z,0
2017-10-03T03:57:35.780Z,0
2017-10-03T03:58:35.156Z,0
2017-10-03T03:59:35.768Z,0
2017-10-03T04:00:35.191Z,0
2017-10-03T04:01:35.765Z,0
2017-10-03T04:02:37.923Z,0
2017-10-03T04:03:35.469Z,0
2017-10-03T04:04:35.452Z,0
2017-10-03T04:05:34.839Z,0
2017-10-03T04:06:35.161Z,0
2017-10-03T04:07:34.527Z,0
2017-10-03T04:08:35.138Z,0
2017-10-03T04:09:35.133Z,0
2017-10-03T04:10:35.829Z,0
2017-10-03T04:11:35.141Z,0
2017-10-03T04:12:35.439Z,0
2017-10-03T04:13:35.438Z,0
2017-10-03T04:14:35.447Z,0
2017-10-03T04:15:35.783Z,0
2017-10-03T04:16:35.439Z,0
2017-10-03T04:17:35.141Z,0
2017-10-03T04:18:34.845Z,0
2017-10-03T04:19:35.432Z,0
2017-10-03T04:20:35.420Z,0
2017-10-03T04:21:35.732Z,0
2017-10-03T04:22:35.113Z,0
2017-10-03T04:23:35.446Z,0
2017-10-03T04:24:35.436Z,0
2017-10-03T04:25:35.122Z,0
2017-10-03T04:26:35.742Z,0
2017-10-03T04:27:35.421Z,0
2017-10-03T04:28:35.116Z,0
2017-10-03T04:29:35.405Z,0
2017-10-03T04:30:35.721Z,0
2017-10-03T04:31:35.105Z,0
2017-10-03T04:32:36.583Z,0
2017-10-03T04:33:35.415Z,0
2017-10-03T04:34:35.086Z,0
2017-10-03T04:35:35.288Z,0
2017-10-03T04:36:35.412Z,0
2017-10-03T04:37:35.703Z,0
2017-10-03T04:38:35.395Z,0
2017-10-03T04:39:35.417Z,0
2017-10-03T04:40:35.396Z,0
2017-10-03T04:41:35.087Z,0
2017-10-03T04:42:35.388Z,0
2017-10-03T04:43:35.691Z,0
2017-10-03T04:44:34.780Z,0
2017-10-03T04:45:35.092Z,0
2017-10-03T04:46:35.402Z,0
2017-10-03T04:47:35.583Z,0
2017-10-03T04:48:35.373Z,0
2017-10-03T04:49:35.366Z,0
2017-10-03T04:50:35.089Z,0
2017-10-03T04:51:35.070Z,0
2017-10-03T04:52:35.066Z,0
2017-10-03T04:53:35.681Z,0
2017-10-03T04:54:35.360Z,0
2017-10-03T04:55:35.136Z,0
2017-10-03T04:56:35.674Z,0
2017-10-03T04:57:35.677Z,0
2017-10-03T04:58:35.033Z,0
2017-10-03T04:59:35.345Z,0
2017-10-03T05:00:35.041Z,0
2017-10-03T05:01:35.653Z,0
2017-10-03T05:02:37.180Z,0
2017-10-03T05:03:35.676Z,0
2017-10-03T05:04:35.030Z,0
2017-10-03T05:05:35.398Z,0
2017-10-03T05:06:35.047Z,0
2017-10-03T05:07:35.014Z,0
2017-10-03T05:08:35.318Z,0
2017-10-03T05:09:35.320Z,0
2017-10-03T05:10:35.032Z,0
2017-10-03T05:11:35.330Z,0
2017-10-03T05:12:35.634Z,0
2017-10-03T05:13:35.025Z,0
2017-10-03T05:14:35.308Z,0
2017-10-03T05:15:35.324Z,0
2017-10-03T05:16:35.306Z,0
2017-10-03T05:17:35.637Z,0
2017-10-03T05:18:35.299Z,0
2017-10-03T05:19:35.609Z,0
2017-10-03T05:20:35.333Z,0
2017-10-03T05:21:35.605Z,0
2017-10-03T05:22:35.605Z,0
2017-10-03T05:23:34.995Z,0
2017-10-03T05:24:34.983Z,0
2017-10-03T05:25:35.289Z,0
2017-10-03T05:26:35.295Z,0
2017-10-03T05:27:34.983Z,0
2017-10-03T05:28:34.991Z,0
2017-10-03T05:29:35.048Z,0
2017-10-03T05:30:35.291Z,0
2017-10-03T05:31:35.582Z,0
2017-10-03T05:32:35.277Z,0
2017-10-03T05:33:35.569Z,0
2017-10-03T05:34:34.648Z,0
2017-10-03T05:35:35.275Z,0
2017-10-03T05:36:35.590Z,0
2017-10-03T05:37:35.269Z,0
2017-10-03T05:38:35.259Z,0
2017-10-03T05:39:35.586Z,0
2017-10-03T05:40:35.645Z,0
2017-10-03T05:41:35.263Z,0
2017-10-03T05:42:35.589Z,0
2017-10-03T05:43:34.963Z,0
2017-10-03T05:44:34.941Z,0
2017-10-03T05:45:35.601Z,0
2017-10-03T05:46:34.932Z,0
2017-10-03T05:47:35.549Z,0
2017-10-03T05:48:34.929Z,0
2017-10-03T05:49:34.920Z,0
2017-10-03T05:50:35.315Z,0
2017-10-03T05:51:34.930Z,0
2017-10-03T05:52:35.240Z,0
2017-10-03T05:53:35.221Z,0
2017-10-03T05:54:34.914Z,0
2017-10-03T05:55:35.222Z,0
2017-10-03T05:56:35.239Z,0
2017-10-03T05:57:35.523Z,5
2017-10-03T05:58:35.524Z,5
2017-10-03T05:59:35.220Z,5
2017-10-03T06:00:34.981Z,5
2017-10-03T06:01:35.216Z,5
2017-10-03T06:02:34.929Z,5
2017-10-03T06:03:38.378Z,5
2017-10-03T06:04:35.528Z,5
2017-10-03T06:05:34.909Z,5
2017-10-03T06:06:35.552Z,5
2017-10-03T06:07:34.888Z,0
2017-10-03T06:08:36.314Z,0
2017-10-03T06:09:34.885Z,0
2017-10-03T06:10:35.503Z,0
2017-10-03T06:11:35.191Z,5
2017-10-03T06:12:34.874Z,5
2017-10-03T06:13:35.494Z,5
2017-10-03T06:14:34.890Z,5
2017-10-03T06:15:35.249Z,5
2017-10-03T06:16:35.178Z,5
2017-10-03T06:17:35.185Z,5
2017-10-03T06:18:34.574Z,5
2017-10-03T06:19:35.485Z,5
2017-10-03T06:20:35.534Z,5
2017-10-03T06:21:34.857Z,5
2017-10-03T06:22:35.164Z,5
2017-10-03T06:23:35.165Z,5
2017-10-03T06:24:35.166Z,5
2017-10-03T06:25:35.166Z,5
2017-10-03T06:26:34.858Z,5
2017-10-03T06:27:34.855Z,5
2017-10-03T06:28:34.842Z,5
2017-10-03T06:29:34.844Z,5
2017-10-03T06:30:34.553Z,5
2017-10-03T06:31:35.456Z,5
2017-10-03T06:32:34.840Z,5
2017-10-03T06:33:36.945Z,5
2017-10-03T06:34:34.839Z,5
2017-10-03T06:35:35.209Z,10
2017-10-03T06:36:35.142Z,10
2017-10-03T06:37:34.832Z,10
2017-10-03T06:38:35.463Z,10
2017-10-03T06:39:35.136Z,15
2017-10-03T06:40:35.524Z,20
2017-10-03T06:41:34.827Z,20
2017-10-03T06:42:35.137Z,25
2017-10-03T06:43:34.827Z,30
2017-10-03T06:44:35.141Z,30
2017-10-03T06:45:35.471Z,30
2017-10-03T06:46:35.440Z,30
2017-10-03T06:47:34.830Z,30
2017-10-03T06:48:35.148Z,30
2017-10-03T06:49:35.447Z,30
2017-10-03T06:50:35.194Z,30
2017-10-03T06:51:35.124Z,30
2017-10-03T06:52:35.110Z,35
2017-10-03T06:53:34.802Z,35
2017-10-03T06:54:35.104Z,35
2017-10-03T06:55:35.417Z,35
2017-10-03T06:56:35.414Z,35
2017-10-03T06:57:35.453Z,30
2017-10-03T06:58:35.110Z,30
2017-10-03T06:59:35.445Z,25
2017-10-03T07:00:35.162Z,25
2017-10-03T07:01:35.407Z,25
2017-10-03T07:02:35.109Z,20
2017-10-03T07:03:34.792Z,20
2017-10-03T07:04:35.915Z,15
2017-10-03T07:05:34.839Z,20
2017-10-03T07:06:35.399Z,20
2017-10-03T07:07:35.407Z,20
2017-10-03T07:08:34.479Z,25
2017-10-03T07:09:35.391Z,25
2017-10-03T07:10:34.520Z,25
2017-10-03T07:11:35.394Z,25
2017-10-03T07:12:35.094Z,20
2017-10-03T07:13:35.406Z,25
2017-10-03T07:14:35.095Z,25
2017-10-03T07:15:34.807Z,20
2017-10-03T07:16:35.088Z,20
2017-10-03T07:17:35.085Z,20
2017-10-03T07:18:35.071Z,20
2017-10-03T07:19:34.762Z,20
2017-10-03T07:20:34.456Z,25
2017-10-03T07:21:35.072Z,30
2017-10-03T07:22:35.375Z,35
2017-10-03T07:23:34.759Z,40
2017-10-03T07:24:35.073Z,45
2017-10-03T07:25:35.386Z,40
2017-10-03T07:26:34.441Z,40
2017-10-03T07:27:35.057Z,45
2017-10-03T07:28:35.054Z,45
2017-10-03T07:29:35.369Z,40
2017-10-03T07:30:34.775Z,35
2017-10-03T07:31:35.055Z,30
2017-10-03T07:32:34.752Z,30
2017-10-03T07:33:35.374Z,30
2017-10-03T07:34:38.111Z,30
2017-10-03T07:35:34.782Z,30
2017-10-03T07:36:35.344Z,40
2017-10-03T07:37:35.048Z,55
2017-10-03T07:38:35.054Z,60
2017-10-03T07:39:34.754Z,65
2017-10-03T07:40:35.109Z,55
2017-10-03T07:41:35.050Z,50
2017-10-03T07:42:35.052Z,40
2017-10-03T07:43:35.042Z,35
2017-10-03T07:44:35.045Z,40
2017-10-03T07:45:35.350Z,40
2017-10-03T07:46:34.422Z,45
2017-10-03T07:47:34.726Z,45
2017-10-03T07:48:35.032Z,50
2017-10-03T07:49:35.334Z,50
2017-10-03T07:50:34.445Z,55
2017-10-03T07:51:34.409Z,65
2017-10-03T07:52:35.017Z,75
2017-10-03T07:53:35.027Z,75
2017-10-03T07:54:35.328Z,80
2017-10-03T07:55:34.764Z,80
2017-10-03T07:56:35.018Z,80
2017-10-03T07:57:35.352Z,85
2017-10-03T07:58:34.395Z,105
2017-10-03T07:59:35.008Z,125
2017-10-03T08:00:34.761Z,125
2017-10-03T08:01:34.702Z,125
2017-10-03T08:02:35.007Z,135
2017-10-03T08:03:34.698Z,160
2017-10-03T08:04:36.406Z,180
2017-10-03T08:05:34.721Z,180
2017-10-03T08:06:35.354Z,185
2017-10-03T08:07:35.306Z,175
2017-10-03T08:08:35.010Z,160
2017-10-03T08:09:34.723Z,150
2017-10-03T08:10:34.720Z,150
2017-10-03T08:11:35.006Z,145
2017-10-03T08:12:34.686Z,130
2017-10-03T08:13:34.995Z,140
2017-10-03T08:14:34.686Z,140
2017-10-03T08:15:35.018Z,135
2017-10-03T08:16:35.314Z,140
2017-10-03T08:17:34.995Z,135
2017-10-03T08:18:34.995Z,105
2017-10-03T08:19:35.299Z,90
2017-10-03T08:20:38.609Z,80
2017-10-03T08:21:34.993Z,95
2017-10-03T08:22:34.989Z,100
2017-10-03T08:23:35.293Z,95
2017-10-03T08:24:34.990Z,100
2017-10-03T08:25:34.387Z,100
2017-10-03T08:26:35.290Z,100
2017-10-03T08:27:34.982Z,110
2017-10-03T08:28:35.301Z,115
2017-10-03T08:29:35.108Z,120
2017-10-03T08:30:34.727Z,135
2017-10-03T08:31:34.677Z,150
2017-10-03T08:32:34.367Z,155
2017-10-03T08:33:34.682Z,155
2017-10-03T08:34:34.675Z,155
2017-10-03T08:35:36.411Z,155
2017-10-03T08:36:34.977Z,170
2017-10-03T08:37:34.364Z,185
2017-10-03T08:38:35.288Z,185
2017-10-03T08:39:34.680Z,185
2017-10-03T08:40:34.680Z,175
2017-10-03T08:41:34.990Z,180
2017-10-03T08:42:34.680Z,190
2017-10-03T08:43:35.283Z,225
2017-10-03T08:44:34.662Z,195
2017-10-03T08:45:34.979Z,175
2017-10-03T08:46:34.980Z,160
2017-10-03T08:47:34.699Z,150
2017-10-03T08:48:34.694Z,150
2017-10-03T08:49:35.010Z,155
2017-10-03T08:50:34.748Z,155
2017-10-03T08:51:35.009Z,155
2017-10-03T08:52:34.711Z,160
2017-10-03T08:53:34.374Z,190
2017-10-03T08:54:34.993Z,250
2017-10-03T08:55:34.734Z,245
2017-10-03T08:56:34.975Z,310
2017-10-03T08:57:34.670Z,260
2017-10-03T08:58:34.690Z,290
2017-10-03T08:59:34.677Z,330
2017-10-03T09:00:34.065Z,225
2017-10-03T09:01:34.992Z,220
2017-10-03T09:02:34.696Z,210
2017-10-03T09:03:34.682Z,195
2017-10-03T09:04:35.017Z,180
2017-10-03T09:05:36.787Z,175
2017-10-03T09:06:35.523Z,160
2017-10-03T09:07:35.300Z,150
2017-10-03T09:08:34.680Z,160
2017-10-03T09:09:34.991Z,175
2017-10-03T09:10:34.679Z,205
2017-10-03T09:11:34.700Z,245
2017-10-03T09:12:34.699Z,265
2017-10-03T09:13:34.990Z,260
2017-10-03T09:14:34.399Z,245
2017-10-03T09:15:35.140Z,235
2017-10-03T09:16:34.984Z,305
2017-10-03T09:17:34.375Z,245
2017-10-03T09:18:34.986Z,240
2017-10-03T09:19:34.980Z,305
2017-10-03T09:20:34.776Z,230
2017-10-03T09:21:34.688Z,305
2017-10-03T09:22:34.760Z,235
2017-10-03T09:23:34.674Z,205
2017-10-03T09:24:34.370Z,265
2017-10-03T09:25:34.704Z,220
2017-10-03T09:26:34.388Z,200
2017-10-03T09:27:35.308Z,295
2017-10-03T09:28:34.690Z,295
2017-10-03T09:29:35.296Z,290
2017-10-03T09:30:34.993Z,290
2017-10-03T09:31:34.694Z,270
2017-10-03T09:32:34.692Z,310
2017-10-03T09:33:34.990Z,315
2017-10-03T09:34:35.307Z,325
2017-10-03T09:35:35.055Z,340
2017-10-03T09:36:37.956Z,325
2017-10-03T09:37:35.000Z,330
2017-10-03T09:38:35.004Z,335
2017-10-03T09:39:34.688Z,315
2017-10-03T09:40:34.695Z,260
2017-10-03T09:41:35.320Z,300
2017-10-03T09:42:35.016Z,305
2017-10-03T09:43:35.315Z,315
2017-10-03T09:44:34.711Z,325
2017-10-03T09:45:34.396Z,310
2017-10-03T09:46:34.698Z,305
2017-10-03T09:47:35.021Z,315
2017-10-03T09:48:34.780Z,290
2017-10-03T09:49:35.024Z,325
2017-10-03T09:50:34.772Z,330
2017-10-03T09:51:34.413Z,315
2017-10-03T09:52:34.406Z,290
2017-10-03T09:53:35.028Z,210
2017-10-03T09:54:34.099Z,245
2017-10-03T09:55:34.775Z,220
2017-10-03T09:56:34.412Z,165
2017-10-03T09:57:35.345Z,150
2017-10-03T09:58:34.729Z,140
2017-10-03T09:59:35.355Z,140
2017-10-03T10:00:34.732Z,150
2017-10-03T10:01:34.734Z,160
2017-10-03T10:02:35.038Z,175
2017-10-03T10:03:34.734Z,185
2017-10-03T10:04:34.753Z,200
2017-10-03T10:05:34.778Z,260
2017-10-03T10:06:35.385Z,285
2017-10-03T10:07:35.356Z,280
2017-10-03T10:08:35.433Z,280
2017-10-03T10:09:34.771Z,255
2017-10-03T10:10:35.127Z,270
2017-10-03T10:11:35.084Z,265
2017-10-03T10:12:35.364Z,265
2017-10-03T10:13:34.746Z,240
2017-10-03T10:14:34.746Z,200
2017-10-03T10:15:34.752Z,255
2017-10-03T10:16:35.403Z,245
2017-10-03T10:17:35.067Z,175
2017-10-03T10:18:35.374Z,180
2017-10-03T10:19:34.807Z,180
2017-10-03T10:20:35.111Z,255
2017-10-03T10:21:34.758Z,265
2017-10-03T10:22:35.064Z,265
2017-10-03T10:23:35.073Z,285
2017-10-03T10:24:35.066Z,305
2017-10-03T10:25:34.772Z,315
2017-10-03T10:26:34.755Z,320
2017-10-03T10:27:35.082Z,320
2017-10-03T10:28:34.753Z,320
2017-10-03T10:29:34.449Z,315
2017-10-03T10:30:35.376Z,250
2017-10-03T10:31:34.456Z,300
2017-10-03T10:32:34.770Z,235
2017-10-03T10:33:34.759Z,210
2017-10-03T10:34:34.457Z,190
2017-10-03T10:35:34.785Z,175
2017-10-03T10:36:43.633Z,175
2017-10-03T10:37:35.629Z,170
2017-10-03T10:38:34.773Z,175
2017-10-03T10:39:35.105Z,170
2017-10-03T10:40:34.779Z,170
2017-10-03T10:41:34.767Z,170
2017-10-03T10:42:34.776Z,170
2017-10-03T10:43:35.080Z,170
2017-10-03T10:44:35.086Z,170
2017-10-03T10:45:35.091Z,165
2017-10-03T10:46:35.397Z,160
2017-10-03T10:47:35.089Z,170
2017-10-03T10:48:35.087Z,165
2017-10-03T10:49:34.780Z,175
2017-10-03T10:50:34.533Z,185
2017-10-03T10:51:35.393Z,195
2017-10-03T10:52:35.404Z,205
2017-10-03T10:53:34.780Z,210
2017-10-03T10:54:35.093Z,215
2017-10-03T10:55:35.095Z,220
2017-10-03T10:56:35.092Z,225
2017-10-03T10:57:34.794Z,225
2017-10-03T10:58:35.101Z,230
2017-10-03T10:59:35.423Z,265
2017-10-03T11:00:34.478Z,285
2017-10-03T11:01:34.789Z,235
2017-10-03T11:02:34.780Z,250
2017-10-03T11:03:35.411Z,240
2017-10-03T11:04:34.803Z,245
2017-10-03T11:05:35.099Z,255
2017-10-03T11:06:35.103Z,255
2017-10-03T11:07:35.433Z,250
2017-10-03T11:08:34.825Z,265
2017-10-03T11:09:35.415Z,285
2017-10-03T11:10:35.103Z,295
2017-10-03T11:11:34.549Z,290
2017-10-03T11:12:34.797Z,290
2017-10-03T11:13:34.497Z,290
2017-10-03T11:14:34.803Z,285
2017-10-03T11:15:35.125Z,240
2017-10-03T11:16:34.807Z,235
2017-10-03T11:17:35.119Z,235
2017-10-03T11:18:34.802Z,245
2017-10-03T11:19:34.805Z,245
2017-10-03T11:20:35.121Z,245
2017-10-03T11:21:35.427Z,240
2017-10-03T11:22:35.444Z,240
2017-10-03T11:23:34.573Z,240
2017-10-03T11:24:35.433Z,230
2017-10-03T11:25:35.426Z,215
2017-10-03T11:26:35.169Z,210
2017-10-03T11:27:34.825Z,210
2017-10-03T11:28:34.544Z,210
2017-10-03T11:29:35.444Z,200
2017-10-03T11:30:34.880Z,195
2017-10-03T11:31:35.123Z,195
2017-10-03T11:32:35.129Z,205
2017-10-03T11:33:35.127Z,210
2017-10-03T11:34:35.127Z,230
2017-10-03T11:35:34.842Z,185
2017-10-03T11:36:34.823Z,185
2017-10-03T11:37:36.532Z,185
2017-10-03T11:38:35.129Z,205
2017-10-03T11:39:35.443Z,225
2017-10-03T11:40:35.142Z,220
2017-10-03T11:41:35.144Z,235
2017-10-03T11:42:35.448Z,225
2017-10-03T11:43:34.520Z,245
2017-10-03T11:44:34.830Z,250
2017-10-03T11:45:35.197Z,225
2017-10-03T11:46:35.156Z,220
2017-10-03T11:47:35.451Z,260
2017-10-03T11:48:35.454Z,220
2017-10-03T11:49:34.857Z,225
2017-10-03T11:50:34.882Z,235
2017-10-03T11:51:34.836Z,240
2017-10-03T11:52:35.146Z,280
2017-10-03T11:53:34.845Z,275
2017-10-03T11:54:34.839Z,245
2017-10-03T11:55:34.907Z,220
2017-10-03T11:56:34.614Z,245
2017-10-03T11:57:35.461Z,225
2017-10-03T11:58:34.947Z,265
2017-10-03T11:59:35.192Z,250
2017-10-03T12:00:34.921Z,220
2017-10-03T12:01:35.162Z,215
2017-10-03T12:02:35.359Z,215
2017-10-03T12:03:34.861Z,210
2017-10-03T12:04:34.240Z,210
2017-10-03T12:05:35.184Z,210
2017-10-03T12:06:35.485Z,205
2017-10-03T12:07:34.557Z,205
2017-10-03T12:08:34.706Z,210
2017-10-03T12:09:35.480Z,215
2017-10-03T12:10:34.888Z,205
2017-10-03T12:11:34.242Z,205
2017-10-03T12:12:35.180Z,195
2017-10-03T12:13:35.678Z,190
2017-10-03T12:14:35.483Z,185
2017-10-03T12:15:35.497Z,180
2017-10-03T12:16:34.893Z,180
2017-10-03T12:17:35.189Z,180
2017-10-03T12:18:35.188Z,215
2017-10-03T12:19:34.897Z,200
2017-10-03T12:20:34.579Z,215
2017-10-03T12:21:34.569Z,220
2017-10-03T12:22:35.212Z,220
2017-10-03T12:23:34.900Z,215
2017-10-03T12:24:35.197Z,185
2017-10-03T12:25:35.233Z,185
2017-10-03T12:26:35.525Z,185
2017-10-03T12:27:34.895Z,190
2017-10-03T12:28:35.208Z,200
2017-10-03T12:29:34.916Z,215
2017-10-03T12:30:35.546Z,225
2017-10-03T12:31:34.946Z,230
2017-10-03T12:32:35.213Z,245
2017-10-03T12:33:35.213Z,235
2017-10-03T12:34:35.520Z,240
2017-10-03T12:35:34.902Z,235
2017-10-03T12:36:35.212Z,265
2017-10-03T12:37:35.212Z,270
2017-10-03T12:38:37.502Z,270
2017-10-03T12:39:34.906Z,265
2017-10-03T12:40:35.229Z,260
2017-10-03T12:41:34.924Z,260
2017-10-03T12:42:35.235Z,250
2017-10-03T12:43:34.605Z,250
2017-10-03T12:44:35.531Z,255
2017-10-03T12:45:35.306Z,260
2017-10-03T12:46:35.231Z,270
2017-10-03T12:47:34.921Z,265
2017-10-03T12:48:35.547Z,255
2017-10-03T12:49:34.623Z,265
2017-10-03T12:50:35.271Z,260
2017-10-03T12:51:35.232Z,265
2017-10-03T12:52:35.247Z,260
2017-10-03T12:53:34.304Z,260
2017-10-03T12:54:34.928Z,255
2017-10-03T12:55:35.266Z,220
2017-10-03T12:56:34.979Z,215
2017-10-03T12:57:35.267Z,210
2017-10-03T12:58:35.275Z,205
2017-10-03T12:59:35.264Z,200
2017-10-03T13:00:35.065Z,190
2017-10-03T13:01:35.593Z,185
2017-10-03T13:02:34.357Z,180
2017-10-03T13:03:35.621Z,185
2017-10-03T13:04:35.274Z,185
2017-10-03T13:05:34.992Z,220
2017-10-03T13:06:34.647Z,230
2017-10-03T13:07:34.672Z,230
2017-10-03T13:08:34.345Z,230
2017-10-03T13:09:35.259Z,220
2017-10-03T13:10:35.323Z,215
2017-10-03T13:11:35.665Z,210
2017-10-03T13:12:34.756Z,205
2017-10-03T13:13:35.291Z,195
2017-10-03T13:14:35.273Z,200
2017-10-03T13:15:35.024Z,230
2017-10-03T13:16:34.355Z,220
2017-10-03T13:17:35.276Z,235
2017-10-03T13:18:34.998Z,270
2017-10-03T13:19:34.974Z,275
2017-10-03T13:20:35.293Z,260
2017-10-03T13:21:35.310Z,265
2017-10-03T13:22:35.597Z,260
2017-10-03T13:23:34.980Z,230
2017-10-03T13:24:34.993Z,245
2017-10-03T13:25:35.300Z,210
2017-10-03T13:26:35.303Z,205
2017-10-03T13:27:35.006Z,195
2017-10-03T13:28:35.296Z,220
2017-10-03T13:29:35.304Z,205
2017-10-03T13:30:35.695Z,195
2017-10-03T13:31:34.999Z,215
2017-10-03T13:32:35.315Z,205
2017-10-03T13:33:35.011Z,180
2017-10-03T13:34:35.006Z,180
2017-10-03T13:35:35.008Z,205
2017-10-03T13:36:35.326Z,175
2017-10-03T13:37:35.308Z,185
2017-10-03T13:38:35.314Z,195
2017-10-03T13:39:36.316Z,185
2017-10-03T13:40:35.015Z,190
2017-10-03T13:41:35.331Z,185
2017-10-03T13:42:34.714Z,180
2017-10-03T13:43:35.023Z,185
2017-10-03T13:44:34.719Z,175
2017-10-03T13:45:35.076Z,180
2017-10-03T13:46:35.075Z,185
2017-10-03T13:47:35.362Z,185
2017-10-03T13:48:35.362Z,185
2017-10-03T13:49:35.683Z,185
2017-10-03T13:50:35.103Z,180
2017-10-03T13:51:34.732Z,185
2017-10-03T13:52:35.051Z,190
2017-10-03T13:53:35.070Z,205
2017-10-03T13:54:34.802Z,215
2017-10-03T13:55:34.737Z,230
2017-10-03T13:56:34.750Z,225
2017-10-03T13:57:35.367Z,230
2017-10-03T13:58:35.055Z,225
2017-10-03T13:59:35.391Z,220
2017-10-03T14:00:35.678Z,190
2017-10-03T14:01:35.369Z,195
2017-10-03T14:02:35.061Z,200
2017-10-03T14:03:35.368Z,155
2017-10-03T14:04:34.749Z,150
2017-10-03T14:05:35.385Z,150
2017-10-03T14:06:35.069Z,140
2017-10-03T14:07:35.369Z,130
2017-10-03T14:08:35.684Z,130
2017-10-03T14:09:35.071Z,130
2017-10-03T14:10:35.449Z,135
2017-10-03T14:11:35.077Z,135
2017-10-03T14:12:35.094Z,135
2017-10-03T14:13:36.120Z,135
2017-10-03T14:14:35.509Z,135
2017-10-03T14:15:34.817Z,135
2017-10-03T14:16:35.109Z,135